createdAt,value
2017-07-24T00:00:52.252Z,998.11
2017-07-24T00:01:53.670Z,998.04
2017-07-24T00:02:55.093Z,997.91
2017-07-24T00:03:56.524Z,997.95
2017-07-24T00:04:57.946Z,997.96
2017-07-24T00:05:59.371Z,997.97
2017-07-24T00:07:00.800Z,997.87
2017-07-24T00:08:02.225Z,997.88
2017-07-24T00:09:03.646Z,997.85
2017-07-24T00:10:05.075Z,997.86
2017-07-24T00:11:06.498Z,997.81
2017-07-24T00:12:07.919Z,997.70
2017-07-24T00:13:09.338Z,997.67
2017-07-24T00:14:10.763Z,997.70
2017-07-24T00:15:12.185Z,997.65
2017-07-24T00:16:13.615Z,997.66
2017-07-24T00:17:15.028Z,997.62
2017-07-24T00:18:16.449Z,997.60
2017-07-24T00:19:17.892Z,997.59
2017-07-24T00:20:19.322Z,997.49
2017-07-24T00:21:20.747Z,997.46
2017-07-24T00:22:22.162Z,997.40
2017-07-24T00:23:23.592Z,997.32
2017-07-24T00:24:25.063Z,997.24
2017-07-24T00:25:26.489Z,997.33
2017-07-24T00:26:27.911Z,997.33
2017-07-24T00:27:29.400Z,997.44
2017-07-24T00:28:30.848Z,997.37
2017-07-24T00:29:32.274Z,997.48
2017-07-24T00:30:33.703Z,997.49
2017-07-24T00:31:35.148Z,997.40
2017-07-24T00:32:36.571Z,997.35
2017-07-24T00:33:37.995Z,997.45
2017-07-24T00:34:39.492Z,997.43
2017-07-24T00:35:40.918Z,997.35
2017-07-24T00:36:42.340Z,997.40
2017-07-24T00:37:43.757Z,997.34
2017-07-24T00:38:45.313Z,997.37
2017-07-24T00:39:46.730Z,997.38
2017-07-24T00:40:48.150Z,997.26
2017-07-24T00:41:49.567Z,997.19
2017-07-24T00:42:51.039Z,997.06
2017-07-24T00:43:52.467Z,996.98
2017-07-24T00:44:53.890Z,997.07
2017-07-24T00:45:55.341Z,996.99
2017-07-24T00:46:56.768Z,997.06
2017-07-24T00:47:58.189Z,997.06
2017-07-24T00:48:59.617Z,997.00
2017-07-24T00:50:01.044Z,996.96
2017-07-24T00:51:02.471Z,997.04
2017-07-24T00:52:03.895Z,997.04
2017-07-24T00:53:05.324Z,997.04
2017-07-24T00:54:06.738Z,997.07
2017-07-24T00:55:08.165Z,997.05
2017-07-24T00:56:09.585Z,997.02
2017-07-24T00:57:11.007Z,997.06
2017-07-24T00:58:12.429Z,996.96
2017-07-24T00:59:13.847Z,996.86
2017-07-24T01:00:15.267Z,996.80
2017-07-24T01:01:16.682Z,996.72
2017-07-24T01:02:18.111Z,996.76
2017-07-24T01:03:19.530Z,996.70
2017-07-24T01:04:20.947Z,996.81
2017-07-24T01:05:22.367Z,996.79
2017-07-24T01:06:23.788Z,996.79
2017-07-24T01:07:25.218Z,996.79
2017-07-24T01:08:26.644Z,996.74
2017-07-24T01:09:28.072Z,996.82
2017-07-24T01:10:29.499Z,996.85
2017-07-24T01:11:30.924Z,996.90
2017-07-24T01:12:32.346Z,996.86
2017-07-24T01:13:33.773Z,996.90
2017-07-24T01:14:35.205Z,996.91
2017-07-24T01:15:36.638Z,996.92
2017-07-24T01:16:38.063Z,996.88
2017-07-24T01:17:39.500Z,996.68
2017-07-24T01:18:40.926Z,996.70
2017-07-24T01:19:42.350Z,996.78
2017-07-24T01:20:43.769Z,996.77
2017-07-24T01:21:45.193Z,996.78
2017-07-24T01:22:46.618Z,996.71
2017-07-24T01:23:48.040Z,996.53
2017-07-24T01:24:49.465Z,996.56
2017-07-24T01:25:50.885Z,996.84
2017-07-24T01:26:52.316Z,996.83
2017-07-24T01:27:53.740Z,996.84
2017-07-24T01:28:55.166Z,996.72
2017-07-24T01:29:56.588Z,996.56
2017-07-24T01:30:58.010Z,996.63
2017-07-24T01:31:59.436Z,996.66
2017-07-24T01:33:00.853Z,996.54
2017-07-24T01:34:02.281Z,996.58
2017-07-24T01:35:03.712Z,996.59
2017-07-24T01:36:05.133Z,996.52
2017-07-24T01:37:06.555Z,996.53
2017-07-24T01:38:07.980Z,996.54
2017-07-24T01:39:09.412Z,996.45
2017-07-24T01:40:10.990Z,996.44
2017-07-24T01:41:12.405Z,996.47
2017-07-24T01:42:13.833Z,996.52
2017-07-24T01:43:15.257Z,996.46
2017-07-24T01:44:16.701Z,996.46
2017-07-24T01:45:18.110Z,996.28
2017-07-24T01:46:19.539Z,996.40
2017-07-24T01:47:20.969Z,996.38
2017-07-24T01:48:22.440Z,996.38
2017-07-24T01:49:23.861Z,996.37
2017-07-24T01:50:25.289Z,996.37
2017-07-24T01:51:26.753Z,996.28
2017-07-24T01:52:28.188Z,996.47
2017-07-24T01:53:29.609Z,996.35
2017-07-24T01:54:31.117Z,996.35
2017-07-24T01:55:32.557Z,996.29
2017-07-24T01:56:33.970Z,996.17
2017-07-24T01:57:35.480Z,996.18
2017-07-24T01:58:36.905Z,996.17
2017-07-24T01:59:38.325Z,996.14
2017-07-24T02:00:39.750Z,996.14
2017-07-24T02:01:41.191Z,996.13
2017-07-24T02:02:42.685Z,996.18
2017-07-24T02:03:44.101Z,996.17
2017-07-24T02:04:45.522Z,996.18
2017-07-24T02:05:46.949Z,996.05
2017-07-24T02:06:48.375Z,996.13
2017-07-24T02:07:49.793Z,996.09
2017-07-24T02:08:51.221Z,996.00
2017-07-24T02:09:52.655Z,996.03
2017-07-24T02:10:54.076Z,995.99
2017-07-24T02:11:55.505Z,996.08
2017-07-24T02:12:56.926Z,996.05
2017-07-24T02:13:58.348Z,996.01
2017-07-24T02:14:59.777Z,996.08
2017-07-24T02:16:01.200Z,995.96
2017-07-24T02:17:02.620Z,995.93
2017-07-24T02:18:04.045Z,995.96
2017-07-24T02:19:05.469Z,995.93
2017-07-24T02:20:06.891Z,995.91
2017-07-24T02:21:08.313Z,995.91
2017-07-24T02:22:09.737Z,995.82
2017-07-24T02:23:11.158Z,995.84
2017-07-24T02:24:12.582Z,995.81
2017-07-24T02:25:14.003Z,995.80
2017-07-24T02:26:15.426Z,995.83
2017-07-24T02:27:16.862Z,995.79
2017-07-24T02:28:18.284Z,995.73
2017-07-24T02:29:19.734Z,995.75
2017-07-24T02:30:21.134Z,995.63
2017-07-24T02:31:22.558Z,995.65
2017-07-24T02:32:23.978Z,995.62
2017-07-24T02:33:25.406Z,995.62
2017-07-24T02:34:26.830Z,995.59
2017-07-24T02:35:28.253Z,995.47
2017-07-24T02:36:29.676Z,995.47
2017-07-24T02:37:31.103Z,995.46
2017-07-24T02:38:32.525Z,995.43
2017-07-24T02:39:33.958Z,995.42
2017-07-24T02:40:35.374Z,995.40
2017-07-24T02:41:36.802Z,995.41
2017-07-24T02:42:38.219Z,995.35
2017-07-24T02:43:39.650Z,995.37
2017-07-24T02:44:41.080Z,995.25
2017-07-24T02:45:42.500Z,995.21
2017-07-24T02:46:43.919Z,995.13
2017-07-24T02:47:45.348Z,995.18
2017-07-24T02:48:46.764Z,995.16
2017-07-24T02:49:48.956Z,995.12
2017-07-24T02:50:50.384Z,995.10
2017-07-24T02:51:51.804Z,995.11
2017-07-24T02:52:53.227Z,995.06
2017-07-24T02:53:54.644Z,994.97
2017-07-24T02:54:56.066Z,994.96
2017-07-24T02:55:57.488Z,994.91
2017-07-24T02:56:58.911Z,994.83
2017-07-24T02:58:00.348Z,994.80
2017-07-24T02:59:01.773Z,994.75
2017-07-24T03:00:03.194Z,994.73
2017-07-24T03:01:04.630Z,994.68
2017-07-24T03:02:06.055Z,994.68
2017-07-24T03:03:07.478Z,994.50
2017-07-24T03:04:08.897Z,994.46
2017-07-24T03:05:10.322Z,994.45
2017-07-24T03:06:11.746Z,994.41
2017-07-24T03:07:13.166Z,994.39
2017-07-24T03:08:14.591Z,994.26
2017-07-24T03:09:16.010Z,994.25
2017-07-24T03:10:17.437Z,994.12
2017-07-24T03:11:18.863Z,994.07
2017-07-24T03:12:20.288Z,994.03
2017-07-24T03:13:21.705Z,993.97
2017-07-24T03:14:23.129Z,993.96
2017-07-24T03:15:24.552Z,993.91
2017-07-24T03:16:25.965Z,993.84
2017-07-24T03:17:27.389Z,993.83
2017-07-24T03:18:28.814Z,993.81
2017-07-24T03:19:30.230Z,993.78
2017-07-24T03:20:31.655Z,993.72
2017-07-24T03:21:33.083Z,993.66
2017-07-24T03:22:34.502Z,993.71
2017-07-24T03:23:35.926Z,993.66
2017-07-24T03:24:37.348Z,993.59
2017-07-24T03:25:38.767Z,993.55
2017-07-24T03:26:40.203Z,993.50
2017-07-24T03:27:41.628Z,993.53
2017-07-24T03:28:43.058Z,993.47
2017-07-24T03:29:44.488Z,993.42
2017-07-24T03:30:45.909Z,993.40
2017-07-24T03:31:47.404Z,993.31
2017-07-24T03:32:48.826Z,993.31
2017-07-24T03:33:50.244Z,993.33
2017-07-24T03:34:51.668Z,993.30
2017-07-24T03:35:53.104Z,993.28
2017-07-24T03:36:54.532Z,993.20
2017-07-24T03:37:55.951Z,993.21
2017-07-24T03:38:57.387Z,993.22
2017-07-24T03:39:58.853Z,993.20
2017-07-24T03:41:00.274Z,993.14
2017-07-24T03:42:01.692Z,993.17
2017-07-24T03:43:03.129Z,993.13
2017-07-24T03:44:04.553Z,993.09
2017-07-24T03:45:05.970Z,993.06
2017-07-24T03:46:07.399Z,993.05
2017-07-24T03:47:08.839Z,992.99
2017-07-24T03:48:10.263Z,992.96
2017-07-24T03:49:11.690Z,992.95
2017-07-24T03:50:13.120Z,992.90
2017-07-24T03:51:14.548Z,992.92
2017-07-24T03:52:15.969Z,992.90
2017-07-24T03:53:17.387Z,992.88
2017-07-24T03:54:18.810Z,992.89
2017-07-24T03:55:20.232Z,992.87
2017-07-24T03:56:21.657Z,992.85
2017-07-24T03:57:23.083Z,992.82
2017-07-24T03:58:24.499Z,992.84
2017-07-24T03:59:25.928Z,992.79
2017-07-24T04:00:27.354Z,992.78
2017-07-24T04:01:28.775Z,992.72
2017-07-24T04:02:30.201Z,992.71
2017-07-24T04:03:31.622Z,992.65
2017-07-24T04:04:33.044Z,992.65
2017-07-24T04:05:34.467Z,992.58
2017-07-24T04:06:35.899Z,992.51
2017-07-24T04:07:37.322Z,992.45
2017-07-24T04:08:38.747Z,992.40
2017-07-24T04:09:40.163Z,992.34
2017-07-24T04:10:41.586Z,992.33
2017-07-24T04:11:43.018Z,992.29
2017-07-24T04:12:44.443Z,992.21
2017-07-24T04:13:45.869Z,992.19
2017-07-24T04:14:47.288Z,992.18
2017-07-24T04:15:48.719Z,992.17
2017-07-24T04:16:50.147Z,992.15
2017-07-24T04:17:51.567Z,992.09
2017-07-24T04:18:53.002Z,992.06
2017-07-24T04:19:54.431Z,992.02
2017-07-24T04:20:55.852Z,992.03
2017-07-24T04:21:57.276Z,992.05
2017-07-24T04:22:58.706Z,991.97
2017-07-24T04:24:00.135Z,991.92
2017-07-24T04:25:01.557Z,991.93
2017-07-24T04:26:03.013Z,991.89
2017-07-24T04:27:04.442Z,991.84
2017-07-24T04:28:05.874Z,991.85
2017-07-24T04:29:07.297Z,991.78
2017-07-24T04:30:08.726Z,991.82
2017-07-24T04:31:10.145Z,991.78
2017-07-24T04:32:11.577Z,991.77
2017-07-24T04:33:13.007Z,991.73
2017-07-24T04:34:14.429Z,991.76
2017-07-24T04:35:15.852Z,991.70
2017-07-24T04:36:17.282Z,991.67
2017-07-24T04:37:18.705Z,991.60
2017-07-24T04:38:20.135Z,991.59
2017-07-24T04:39:21.558Z,991.63
2017-07-24T04:40:22.976Z,991.60
2017-07-24T04:41:24.403Z,991.60
2017-07-24T04:42:25.832Z,991.62
2017-07-24T04:43:27.257Z,991.57
2017-07-24T04:44:28.683Z,991.55
2017-07-24T04:45:30.108Z,991.54
2017-07-24T04:46:31.543Z,991.55
2017-07-24T04:47:32.963Z,991.56
2017-07-24T04:48:34.389Z,991.54
2017-07-24T04:49:35.823Z,991.53
2017-07-24T04:50:37.247Z,991.54
2017-07-24T04:51:38.685Z,991.50
2017-07-24T04:52:40.115Z,991.54
2017-07-24T04:53:41.542Z,991.52
2017-07-24T04:54:42.967Z,991.53
2017-07-24T04:55:44.392Z,991.47
2017-07-24T04:56:45.815Z,991.47
2017-07-24T04:57:47.243Z,991.53
2017-07-24T04:58:48.667Z,991.54
2017-07-24T04:59:50.089Z,991.47
2017-07-24T05:00:51.506Z,991.49
2017-07-24T05:01:52.933Z,991.45
2017-07-24T05:02:54.359Z,991.41
2017-07-24T05:03:55.789Z,991.44
2017-07-24T05:04:57.209Z,991.40
2017-07-24T05:05:58.634Z,991.36
2017-07-24T05:07:00.058Z,991.33
2017-07-24T05:08:01.476Z,991.28
2017-07-24T05:09:02.908Z,991.27
2017-07-24T05:10:04.334Z,991.29
2017-07-24T05:11:05.758Z,991.33
2017-07-24T05:12:07.183Z,991.33
2017-07-24T05:13:08.608Z,991.32
2017-07-24T05:14:10.041Z,991.35
2017-07-24T05:15:11.462Z,991.29
2017-07-24T05:16:12.889Z,991.31
2017-07-24T05:17:14.321Z,991.32
2017-07-24T05:18:15.756Z,991.36
2017-07-24T05:19:17.181Z,991.28
2017-07-24T05:20:18.607Z,991.29
2017-07-24T05:21:20.031Z,991.27
2017-07-24T05:22:21.455Z,991.25
2017-07-24T05:23:22.910Z,991.29
2017-07-24T05:24:24.339Z,991.28
2017-07-24T05:25:25.762Z,991.26
2017-07-24T05:26:27.183Z,991.19
2017-07-24T05:27:28.629Z,991.19
2017-07-24T05:28:30.057Z,991.18
2017-07-24T05:29:31.514Z,991.11
2017-07-24T05:30:32.949Z,991.12
2017-07-24T05:31:34.373Z,991.10
2017-07-24T05:32:35.803Z,991.08
2017-07-24T05:33:37.228Z,991.04
2017-07-24T05:34:38.658Z,991.12
2017-07-24T05:35:40.080Z,991.12
2017-07-24T05:36:41.517Z,991.08
2017-07-24T05:37:42.957Z,991.11
2017-07-24T05:38:44.389Z,991.09
2017-07-24T05:39:45.818Z,991.08
2017-07-24T05:40:47.243Z,991.09
2017-07-24T05:41:48.670Z,991.06
2017-07-24T05:42:50.098Z,990.99
2017-07-24T05:43:51.524Z,990.96
2017-07-24T05:44:52.948Z,990.97
2017-07-24T05:45:54.370Z,990.94
2017-07-24T05:46:55.800Z,990.97
2017-07-24T05:47:57.219Z,991.02
2017-07-24T05:48:58.648Z,990.99
2017-07-24T05:50:00.084Z,991.01
2017-07-24T05:51:01.511Z,991.03
2017-07-24T05:52:02.944Z,991.06
2017-07-24T05:53:04.367Z,991.09
2017-07-24T05:54:05.802Z,991.10
2017-07-24T05:55:07.234Z,991.10
2017-07-24T05:56:08.660Z,991.05
2017-07-24T05:57:10.091Z,991.03
2017-07-24T05:58:11.522Z,991.07
2017-07-24T05:59:12.956Z,990.98
2017-07-24T06:00:14.379Z,991.03
2017-07-24T06:01:15.810Z,990.99
2017-07-24T06:02:17.235Z,991.07
2017-07-24T06:03:18.660Z,990.98
2017-07-24T06:04:20.081Z,991.01
2017-07-24T06:05:21.512Z,990.99
2017-07-24T06:06:22.943Z,991.00
2017-07-24T06:07:24.384Z,990.95
2017-07-24T06:08:25.799Z,991.01
2017-07-24T06:09:27.227Z,991.01
2017-07-24T06:10:28.653Z,990.94
2017-07-24T06:11:30.078Z,991.01
2017-07-24T06:12:31.493Z,991.01
2017-07-24T06:13:32.922Z,991.01
2017-07-24T06:14:34.345Z,991.05
2017-07-24T06:15:35.775Z,991.07
2017-07-24T06:16:37.199Z,991.05
2017-07-24T06:17:38.622Z,991.04
2017-07-24T06:18:40.051Z,991.09
2017-07-24T06:19:41.485Z,991.03
2017-07-24T06:20:42.910Z,991.04
2017-07-24T06:21:44.338Z,991.07
2017-07-24T06:22:45.758Z,991.04
2017-07-24T06:23:47.183Z,991.03
2017-07-24T06:24:48.609Z,991.02
2017-07-24T06:25:50.030Z,991.01
2017-07-24T06:26:51.469Z,991.01
2017-07-24T06:27:52.891Z,991.01
2017-07-24T06:28:54.316Z,991.01
2017-07-24T06:29:55.737Z,991.02
2017-07-24T06:30:57.167Z,991.04
2017-07-24T06:31:58.591Z,991.04
2017-07-24T06:33:00.022Z,991.02
2017-07-24T06:34:01.450Z,991.04
2017-07-24T06:35:02.896Z,991.05
2017-07-24T06:36:04.318Z,991.02
2017-07-24T06:37:05.748Z,991.04
2017-07-24T06:38:07.177Z,991.02
2017-07-24T06:39:08.608Z,991.04
2017-07-24T06:40:10.038Z,991.03
2017-07-24T06:41:11.470Z,991.02
2017-07-24T06:42:12.899Z,991.03
2017-07-24T06:43:14.323Z,991.05
2017-07-24T06:44:15.750Z,991.00
2017-07-24T06:45:17.178Z,990.97
2017-07-24T06:46:18.596Z,991.09
2017-07-24T06:47:20.024Z,991.03
2017-07-24T06:48:21.449Z,991.05
2017-07-24T06:49:22.884Z,990.98
2017-07-24T06:50:24.320Z,991.06
2017-07-24T06:51:25.749Z,990.96
2017-07-24T06:52:27.177Z,990.97
2017-07-24T06:53:28.595Z,990.95
2017-07-24T06:54:30.035Z,990.91
2017-07-24T06:55:31.458Z,990.93
2017-07-24T06:56:32.880Z,990.93
2017-07-24T06:57:34.305Z,990.91
2017-07-24T06:58:35.733Z,990.97
2017-07-24T06:59:37.157Z,990.98
2017-07-24T07:00:38.589Z,990.94
2017-07-24T07:01:40.010Z,990.94
2017-07-24T07:02:41.438Z,990.98
2017-07-24T07:03:42.866Z,991.00
2017-07-24T07:04:44.290Z,990.97
2017-07-24T07:05:45.715Z,991.01
2017-07-24T07:06:47.143Z,991.00
2017-07-24T07:07:48.568Z,991.00
2017-07-24T07:08:49.998Z,991.02
2017-07-24T07:09:51.429Z,991.04
2017-07-24T07:10:52.855Z,991.02
2017-07-24T07:11:54.277Z,991.03
2017-07-24T07:12:55.697Z,991.11
2017-07-24T07:13:57.131Z,991.12
2017-07-24T07:14:58.559Z,991.10
2017-07-24T07:15:59.978Z,991.13
2017-07-24T07:17:01.410Z,991.09
2017-07-24T07:18:02.843Z,991.10
2017-07-24T07:19:04.270Z,991.09
2017-07-24T07:20:05.698Z,991.07
2017-07-24T07:21:07.126Z,991.12
2017-07-24T07:22:08.549Z,991.09
2017-07-24T07:23:09.974Z,991.11
2017-07-24T07:24:11.403Z,991.15
2017-07-24T07:25:12.828Z,991.14
2017-07-24T07:26:14.257Z,991.16
2017-07-24T07:27:15.685Z,991.17
2017-07-24T07:28:17.117Z,991.17
2017-07-24T07:29:18.539Z,991.14
2017-07-24T07:30:19.976Z,991.18
2017-07-24T07:31:21.402Z,991.17
2017-07-24T07:32:22.835Z,991.20
2017-07-24T07:33:24.272Z,991.20
2017-07-24T07:34:25.695Z,991.17
2017-07-24T07:35:27.124Z,991.20
2017-07-24T07:36:28.562Z,991.17
2017-07-24T07:37:29.999Z,991.16
2017-07-24T07:38:31.423Z,991.18
2017-07-24T07:39:32.855Z,991.23
2017-07-24T07:40:34.282Z,991.18
2017-07-24T07:41:35.711Z,991.15
2017-07-24T07:42:37.134Z,991.19
2017-07-24T07:43:38.567Z,991.20
2017-07-24T07:44:39.996Z,991.20
2017-07-24T07:45:41.424Z,991.13
2017-07-24T07:46:42.848Z,991.11
2017-07-24T07:47:44.292Z,991.11
2017-07-24T07:48:45.721Z,991.08
2017-07-24T07:49:47.151Z,991.07
2017-07-24T07:50:48.580Z,991.08
2017-07-24T07:51:50.011Z,991.05
2017-07-24T07:52:51.433Z,991.07
2017-07-24T07:53:52.865Z,991.09
2017-07-24T07:54:54.287Z,991.08
2017-07-24T07:55:55.714Z,991.09
2017-07-24T07:56:57.138Z,991.14
2017-07-24T07:57:58.564Z,991.09
2017-07-24T07:58:59.993Z,991.11
2017-07-24T08:00:01.421Z,991.12
2017-07-24T08:01:02.844Z,991.11
2017-07-24T08:02:04.271Z,991.11
2017-07-24T08:03:05.702Z,991.13
2017-07-24T08:04:07.131Z,991.12
2017-07-24T08:05:08.562Z,991.13
2017-07-24T08:06:09.992Z,991.17
2017-07-24T08:07:11.435Z,991.18
2017-07-24T08:08:12.861Z,991.16
2017-07-24T08:09:14.293Z,991.17
2017-07-24T08:10:15.721Z,991.16
2017-07-24T08:11:17.149Z,991.17
2017-07-24T08:12:18.578Z,991.17
2017-07-24T08:13:20.001Z,991.17
2017-07-24T08:14:21.434Z,991.18
2017-07-24T08:15:22.862Z,991.20
2017-07-24T08:16:24.298Z,991.23
2017-07-24T08:17:25.722Z,991.22
2017-07-24T08:18:27.148Z,991.23
2017-07-24T08:19:28.579Z,991.30
2017-07-24T08:20:30.006Z,991.32
2017-07-24T08:21:31.441Z,991.33
2017-07-24T08:22:32.864Z,991.40
2017-07-24T08:23:34.291Z,991.43
2017-07-24T08:24:35.724Z,991.43
2017-07-24T08:25:37.152Z,991.48
2017-07-24T08:26:38.587Z,991.48
2017-07-24T08:27:40.022Z,991.48
2017-07-24T08:28:41.450Z,991.51
2017-07-24T08:29:42.880Z,991.54
2017-07-24T08:30:44.316Z,991.56
2017-07-24T08:31:45.738Z,991.55
2017-07-24T08:32:47.164Z,991.56
2017-07-24T08:33:48.593Z,991.60
2017-07-24T08:34:50.032Z,991.61
2017-07-24T08:35:51.466Z,991.58
2017-07-24T08:36:52.893Z,991.63
2017-07-24T08:37:54.328Z,991.58
2017-07-24T08:38:55.750Z,991.60
2017-07-24T08:39:57.182Z,991.57
2017-07-24T08:40:58.607Z,991.60
2017-07-24T08:42:00.044Z,991.51
2017-07-24T08:43:01.484Z,991.60
2017-07-24T08:44:02.974Z,991.58
2017-07-24T08:45:04.412Z,991.58
2017-07-24T08:46:05.838Z,991.61
2017-07-24T08:47:07.263Z,991.64
2017-07-24T08:48:08.701Z,991.69
2017-07-24T08:49:10.138Z,991.62
2017-07-24T08:50:11.564Z,991.65
2017-07-24T08:51:12.991Z,991.64
2017-07-24T08:52:14.419Z,991.72
2017-07-24T08:53:15.846Z,991.72
2017-07-24T08:54:17.281Z,991.70
2017-07-24T08:55:18.705Z,991.82
2017-07-24T08:56:20.129Z,991.82
2017-07-24T08:57:21.555Z,991.86
2017-07-24T08:58:22.988Z,991.87
2017-07-24T08:59:24.416Z,991.90
2017-07-24T09:00:25.840Z,991.89
2017-07-24T09:01:27.263Z,991.84
2017-07-24T09:02:28.693Z,991.85
2017-07-24T09:03:30.118Z,991.86
2017-07-24T09:04:31.553Z,991.85
2017-07-24T09:05:32.990Z,991.83
2017-07-24T09:06:34.437Z,991.91
2017-07-24T09:07:35.861Z,991.96
2017-07-24T09:08:37.300Z,991.96
2017-07-24T09:09:38.732Z,992.02
2017-07-24T09:10:40.160Z,991.95
2017-07-24T09:11:41.589Z,991.98
2017-07-24T09:12:43.039Z,991.88
2017-07-24T09:13:44.464Z,991.96
2017-07-24T09:14:45.898Z,991.95
2017-07-24T09:15:47.320Z,991.98
2017-07-24T09:16:48.747Z,991.98
2017-07-24T09:17:50.179Z,992.02
2017-07-24T09:18:51.609Z,991.96
2017-07-24T09:19:53.036Z,991.96
2017-07-24T09:20:54.473Z,991.98
2017-07-24T09:22:00.984Z,991.94
2017-07-24T09:23:02.638Z,991.89
2017-07-24T09:24:04.261Z,991.87
2017-07-24T09:25:06.459Z,991.83
2017-07-24T09:26:08.528Z,991.91
2017-07-24T09:27:09.967Z,991.96
2017-07-24T09:28:11.400Z,992.00
2017-07-24T09:29:12.853Z,992.07
2017-07-24T09:30:14.279Z,992.11
2017-07-24T09:31:15.718Z,992.12
2017-07-24T09:32:17.147Z,992.19
2017-07-24T09:33:18.578Z,992.18
2017-07-24T09:34:19.997Z,992.23
2017-07-24T09:35:21.430Z,992.18
2017-07-24T09:36:22.852Z,992.21
2017-07-24T09:37:24.284Z,992.22
2017-07-24T09:38:25.711Z,992.29
2017-07-24T09:39:27.144Z,992.35
2017-07-24T09:40:28.579Z,992.33
2017-07-24T09:41:30.010Z,992.31
2017-07-24T09:42:31.442Z,992.26
2017-07-24T09:43:32.868Z,992.32
2017-07-24T09:44:34.308Z,992.32
2017-07-24T09:45:35.734Z,992.40
2017-07-24T09:46:37.160Z,992.35
2017-07-24T09:47:38.594Z,992.31
2017-07-24T09:48:40.023Z,992.40
2017-07-24T09:49:41.453Z,992.35
2017-07-24T09:50:42.887Z,992.43
2017-07-24T09:51:44.315Z,992.39
2017-07-24T09:52:45.746Z,992.39
2017-07-24T09:53:47.172Z,992.33
2017-07-24T09:54:48.598Z,992.31
2017-07-24T09:55:50.039Z,992.26
2017-07-24T09:56:51.469Z,992.22
2017-07-24T09:57:53.402Z,992.16
2017-07-24T09:58:54.841Z,992.17
2017-07-24T09:59:56.290Z,992.16
2017-07-24T10:00:57.733Z,992.12
2017-07-24T10:01:59.160Z,992.19
2017-07-24T10:03:00.586Z,992.18
2017-07-24T10:04:02.019Z,992.19
2017-07-24T10:05:03.447Z,992.14
2017-07-24T10:06:04.880Z,992.10
2017-07-24T10:07:06.328Z,992.12
2017-07-24T10:08:07.739Z,992.16
2017-07-24T10:09:09.170Z,992.18
2017-07-24T10:10:10.601Z,992.18
2017-07-24T10:11:12.030Z,992.17
2017-07-24T10:12:13.464Z,992.15
2017-07-24T10:13:14.893Z,992.16
2017-07-24T10:14:16.330Z,992.15
2017-07-24T10:15:17.772Z,992.14
2017-07-24T10:16:19.205Z,992.13
2017-07-24T10:17:20.638Z,992.24
2017-07-24T10:18:22.069Z,992.26
2017-07-24T10:19:23.526Z,992.27
2017-07-24T10:20:24.979Z,992.25
2017-07-24T10:21:26.384Z,992.24
2017-07-24T10:22:27.824Z,992.22
2017-07-24T10:23:29.253Z,992.19
2017-07-24T10:24:30.682Z,992.20
2017-07-24T10:25:32.113Z,992.13
2017-07-24T10:26:33.542Z,992.13
2017-07-24T10:27:34.976Z,992.06
2017-07-24T10:28:36.474Z,992.08
2017-07-24T10:29:37.904Z,992.09
2017-07-24T10:30:39.327Z,992.10
2017-07-24T10:31:40.758Z,992.07
2017-07-24T10:32:42.196Z,992.09
2017-07-24T10:33:43.626Z,992.11
2017-07-24T10:34:45.056Z,992.14
2017-07-24T10:35:46.491Z,992.16
2017-07-24T10:36:47.922Z,992.20
2017-07-24T10:37:49.357Z,992.20
2017-07-24T10:38:50.785Z,992.18
2017-07-24T10:39:52.209Z,992.22
2017-07-24T10:40:53.646Z,992.24
2017-07-24T10:41:55.083Z,992.20
2017-07-24T10:42:56.518Z,992.22
2017-07-24T10:43:57.956Z,992.20
2017-07-24T10:44:59.383Z,992.23
2017-07-24T10:46:00.814Z,992.20
2017-07-24T10:47:02.721Z,992.14
2017-07-24T10:48:04.149Z,992.16
2017-07-24T10:49:05.578Z,992.16
2017-07-24T10:50:07.014Z,992.19
2017-07-24T10:51:08.442Z,992.23
2017-07-24T10:52:09.874Z,992.31
2017-07-24T10:53:11.302Z,992.33
2017-07-24T10:54:12.746Z,992.36
2017-07-24T10:55:14.173Z,992.36
2017-07-24T10:56:15.608Z,992.32
2017-07-24T10:57:17.032Z,992.30
2017-07-24T10:58:18.460Z,992.38
2017-07-24T10:59:19.886Z,992.44
2017-07-24T11:00:21.321Z,992.42
2017-07-24T11:01:22.748Z,992.39
2017-07-24T11:02:24.182Z,992.42
2017-07-24T11:03:25.618Z,992.36
2017-07-24T11:04:27.051Z,992.36
2017-07-24T11:05:28.472Z,992.35
2017-07-24T11:06:29.903Z,992.47
2017-07-24T11:07:31.353Z,992.45
2017-07-24T11:08:32.781Z,992.47
2017-07-24T11:09:34.209Z,992.35
2017-07-24T11:10:35.640Z,992.34
2017-07-24T11:11:37.071Z,992.32
2017-07-24T11:12:38.539Z,992.35
2017-07-24T11:13:39.969Z,992.31
2017-07-24T11:14:41.400Z,992.24
2017-07-24T11:15:43.782Z,992.22
2017-07-24T11:16:45.202Z,992.15
2017-07-24T11:17:46.632Z,992.15
2017-07-24T11:18:48.065Z,992.14
2017-07-24T11:19:49.500Z,992.16
2017-07-24T11:20:50.928Z,992.12
2017-07-24T11:21:52.363Z,992.07
2017-07-24T11:22:53.791Z,992.08
2017-07-24T11:23:55.230Z,992.11
2017-07-24T11:24:56.661Z,992.08
2017-07-24T11:25:58.091Z,992.07
2017-07-24T11:26:59.519Z,992.15
2017-07-24T11:28:00.949Z,992.15
2017-07-24T11:29:02.386Z,992.10
2017-07-24T11:30:03.821Z,992.14
2017-07-24T11:31:05.256Z,992.10
2017-07-24T11:32:06.680Z,992.11
2017-07-24T11:33:08.658Z,992.06
2017-07-24T11:34:10.097Z,992.10
2017-07-24T11:35:11.524Z,992.13
2017-07-24T11:36:12.952Z,992.17
2017-07-24T11:37:14.387Z,992.14
2017-07-24T11:38:15.822Z,992.13
2017-07-24T11:39:17.238Z,992.05
2017-07-24T11:40:18.667Z,992.01
2017-07-24T11:41:20.094Z,991.97
2017-07-24T11:42:21.522Z,991.91
2017-07-24T11:43:22.955Z,991.90
2017-07-24T11:44:24.390Z,991.95
2017-07-24T11:45:25.827Z,992.01
2017-07-24T11:46:27.246Z,992.03
2017-07-24T11:47:28.678Z,992.07
2017-07-24T11:48:30.107Z,992.07
2017-07-24T11:49:31.541Z,992.12
2017-07-24T11:50:32.970Z,992.14
2017-07-24T11:51:34.403Z,992.11
2017-07-24T11:52:35.835Z,992.06
2017-07-24T11:53:37.259Z,992.04
2017-07-24T11:54:38.689Z,992.03
2017-07-24T11:55:40.109Z,992.00
2017-07-24T11:56:41.551Z,991.98
2017-07-24T11:57:42.984Z,991.96
2017-07-24T11:58:44.423Z,991.91
2017-07-24T11:59:45.852Z,991.89
2017-07-24T12:00:47.272Z,991.88
2017-07-24T12:01:48.703Z,991.92
2017-07-24T12:02:50.128Z,991.94
2017-07-24T12:03:51.555Z,991.88
2017-07-24T12:04:52.986Z,991.88
2017-07-24T12:05:54.414Z,991.92
2017-07-24T12:06:55.840Z,991.93
2017-07-24T12:07:57.270Z,991.98
2017-07-24T12:08:58.698Z,991.97
2017-07-24T12:10:00.124Z,992.02
2017-07-24T12:11:01.554Z,992.06
2017-07-24T12:12:02.985Z,992.05
2017-07-24T12:13:04.411Z,992.04
2017-07-24T12:14:05.843Z,992.01
2017-07-24T12:15:07.281Z,992.07
2017-07-24T12:16:08.709Z,992.17
2017-07-24T12:17:10.136Z,992.11
2017-07-24T12:18:11.574Z,992.15
2017-07-24T12:19:13.014Z,992.08
2017-07-24T12:20:14.445Z,992.09
2017-07-24T12:21:15.869Z,992.12
2017-07-24T12:22:17.327Z,992.15
2017-07-24T12:23:18.764Z,992.18
2017-07-24T12:24:20.206Z,992.33
2017-07-24T12:25:21.644Z,992.44
2017-07-24T12:26:23.086Z,992.54
2017-07-24T12:27:24.540Z,992.57
2017-07-24T12:28:25.967Z,992.64
2017-07-24T12:29:27.420Z,992.61
2017-07-24T12:30:28.997Z,992.67
2017-07-24T12:31:30.425Z,992.75
2017-07-24T12:32:31.856Z,992.78
2017-07-24T12:33:33.295Z,992.75
2017-07-24T12:34:34.731Z,992.76
2017-07-24T12:35:36.164Z,992.76
2017-07-24T12:36:37.600Z,992.76
2017-07-24T12:37:39.028Z,992.79
2017-07-24T12:38:40.452Z,992.91
2017-07-24T12:39:41.883Z,992.89
2017-07-24T12:40:43.338Z,992.80
2017-07-24T12:41:44.829Z,992.72
2017-07-24T12:42:46.270Z,992.72
2017-07-24T12:43:47.701Z,992.74
2017-07-24T12:44:49.142Z,992.95
2017-07-24T12:45:50.576Z,993.08
2017-07-24T12:46:52.008Z,993.05